Pagrindinis puslapis
METAR-TAF:

METAR-TAF

Oro uostai :

Sandnessjøen, Norvegija

platuma: 65-58N, ilguma: 012-28E, Aukštis: 1 m

Dabartinis oras

Ataskaita buvo paskelbta 14 minutes, ne 04:50 UTC
Vėjas 8 kt iš Vakarų/Pietvakarių
Temperatūra 3°C
Drėgmė 87%
Slėgis 998 hPa
Matomumas 10 km arba daugiau
Mažai debesys ne aukštis 1200 ft, Liūtiniai kamuoliniai debesys.
Išsisklaidę debesys ne aukštis 2200 ft
Išsisklaidę debesys ne aukštis 6500 ft
Liūtis kaimynystėje

METAR: ENST 230450Z 24008KT 9999 VCSH FEW012CB SCT022 SCT065 03/01 Q0998 RESHRASN RMK WIND 300FT 26009KT

Laikas: 07:04 (05:04 UTC)


TAF: trūkstamas

Orai ataskaitas ir orų prognozės (METAR, TAF).

turimą stotys yra geltonos ir raudonos taškus žemėlapyje.

Perkelti pele per norėdami pamatyti stoties vardą.

Tada spustelėkite, norėdami matyti oro stebėjimo ir prognozės.

Norėdami pakeisti žemėlapį: spustelėkite ant žalios mygtukų su juodo kryžiaus žemyn,; žalią mygtuką su brūkšneliu, jei norite nutolinti; arba žalių rodyklių gretimoms žemėlapius.


METAR-TAF: